createdAt,value
2018-03-01T00:00:39.113Z,101105.19
2018-03-01T00:01:42.459Z,101115.11
2018-03-01T00:02:45.955Z,101127.63
2018-03-01T00:03:49.308Z,101133.70
2018-03-01T00:04:52.667Z,101120.33
2018-03-01T00:05:56.085Z,101122.05
2018-03-01T00:06:59.448Z,101128.53
2018-03-01T00:08:03.186Z,101116.88
2018-03-01T00:09:06.562Z,101117.27
2018-03-01T00:10:09.906Z,101116.45
2018-03-01T00:11:13.366Z,101117.27
2018-03-01T00:12:16.870Z,101126.33
2018-03-01T00:13:20.292Z,101117.70
2018-03-01T00:14:23.728Z,101115.98
2018-03-01T00:15:27.079Z,101129.39
2018-03-01T00:16:30.445Z,101123.35
2018-03-01T00:17:33.774Z,101122.88
2018-03-01T00:18:37.101Z,101115.55
2018-03-01T00:19:40.427Z,101106.05
2018-03-01T00:20:43.905Z,101110.80
2018-03-01T00:21:47.244Z,101113.39
2018-03-01T00:22:50.588Z,101113.39
2018-03-01T00:23:54.092Z,101108.22
2018-03-01T00:24:57.484Z,101106.05
2018-03-01T00:26:00.893Z,101109.55
2018-03-01T00:27:04.684Z,101108.25
2018-03-01T00:28:08.021Z,101113.00
2018-03-01T00:29:11.381Z,101103.08
2018-03-01T00:30:14.874Z,101108.64
2018-03-01T00:31:18.264Z,101102.60
2018-03-01T00:32:21.668Z,101099.15
2018-03-01T00:33:25.029Z,101098.72
2018-03-01T00:34:28.449Z,101105.63
2018-03-01T00:35:31.897Z,101095.69
2018-03-01T00:36:35.214Z,101095.22
2018-03-01T00:37:38.629Z,101091.33
2018-03-01T00:38:41.965Z,101089.60
2018-03-01T00:39:45.400Z,101091.77
2018-03-01T00:40:48.715Z,101095.70
2018-03-01T00:41:52.045Z,101079.77
2018-03-01T00:42:55.385Z,101081.46
2018-03-01T00:43:58.754Z,101092.28
2018-03-01T00:45:02.251Z,101073.30
2018-03-01T00:46:05.592Z,101068.09
2018-03-01T00:47:08.986Z,101065.97
2018-03-01T00:48:12.337Z,101068.13
2018-03-01T00:49:15.720Z,101069.42
2018-03-01T00:50:19.417Z,101065.10
2018-03-01T00:51:22.864Z,101069.42
2018-03-01T00:52:26.223Z,101072.87
2018-03-01T00:53:29.760Z,101068.55
2018-03-01T00:54:33.066Z,101071.53
2018-03-01T00:55:36.505Z,101067.65
2018-03-01T00:56:39.939Z,101072.83
2018-03-01T00:57:43.496Z,101065.02
2018-03-01T00:58:46.830Z,101058.58
2018-03-01T00:59:50.254Z,101070.23
2018-03-01T01:00:53.784Z,101059.89
2018-03-01T01:01:57.250Z,101065.53
2018-03-01T01:03:00.785Z,101067.27
2018-03-01T01:04:04.242Z,101056.91
2018-03-01T01:05:07.822Z,101066.83
2018-03-01T01:06:11.233Z,101065.10
2018-03-01T01:07:14.630Z,101068.08
2018-03-01T01:08:18.960Z,101072.39
2018-03-01T01:09:22.307Z,101080.55
2018-03-01T01:10:25.652Z,101086.16
2018-03-01T01:11:29.102Z,101071.92
2018-03-01T01:12:32.445Z,101077.09
2018-03-01T01:13:35.811Z,101075.33
2018-03-01T01:14:39.171Z,101076.63
2018-03-01T01:15:42.547Z,101071.44
2018-03-01T01:16:45.887Z,101073.16
2018-03-01T01:17:49.247Z,101070.14
2018-03-01T01:18:52.691Z,101075.71
2018-03-01T01:19:56.138Z,101078.29
2018-03-01T01:20:59.490Z,101077.39
2018-03-01T01:22:02.894Z,101063.57
2018-03-01T01:24:16.251Z,101070.86
2018-03-01T01:25:19.703Z,101074.75
2018-03-01T01:26:23.083Z,101075.17
2018-03-01T01:27:26.420Z,101071.73
2018-03-01T01:28:29.857Z,101061.41
2018-03-01T01:29:33.206Z,101066.12
2018-03-01T01:30:36.685Z,101068.70
2018-03-01T01:31:40.097Z,101070.47
2018-03-01T01:32:43.443Z,101068.31
2018-03-01T01:33:46.970Z,101057.09
2018-03-01T01:34:50.387Z,101052.77
2018-03-01T01:35:53.729Z,101054.08
2018-03-01T01:36:57.098Z,101049.80
2018-03-01T01:38:00.525Z,101035.13
2018-03-01T01:39:03.892Z,101042.44
2018-03-01T01:40:07.309Z,101036.82
2018-03-01T01:41:10.730Z,101033.41
2018-03-01T01:42:14.256Z,101030.39
2018-03-01T01:43:17.628Z,101023.06
2018-03-01T01:44:20.936Z,101027.00
2018-03-01T01:45:24.375Z,101020.57
2018-03-01T01:46:27.798Z,101020.14
2018-03-01T01:47:31.121Z,101015.45
2018-03-01T01:48:34.569Z,101025.38
2018-03-01T01:49:37.913Z,101015.45
2018-03-01T01:50:53.273Z,101019.33
2018-03-01T01:51:56.713Z,101018.98
2018-03-01T01:53:00.153Z,101011.22
2018-03-01T01:54:03.503Z,101003.89
2018-03-01T01:55:06.911Z,101005.19
2018-03-01T01:56:10.317Z,101008.68
2018-03-01T01:57:13.765Z,101005.20
2018-03-01T01:58:17.173Z,101000.01
2018-03-01T01:59:20.569Z,101002.59
2018-03-01T02:00:24.013Z,101004.28
2018-03-01T02:01:27.465Z,101012.48
2018-03-01T02:02:30.901Z,101003.89
2018-03-01T02:03:34.289Z,101005.62
2018-03-01T02:04:37.856Z,100989.19
2018-03-01T02:05:41.223Z,100991.34
2018-03-01T02:06:44.656Z,100990.47
2018-03-01T02:07:48.017Z,100992.20
2018-03-01T02:08:51.576Z,100984.48
2018-03-01T02:09:54.989Z,100986.20
2018-03-01T02:10:58.368Z,100981.89
2018-03-01T02:12:01.734Z,100987.88
2018-03-01T02:13:05.103Z,100986.59
2018-03-01T02:14:08.474Z,100989.61
2018-03-01T02:15:11.801Z,100986.59
2018-03-01T02:16:15.161Z,100989.61
2018-03-01T02:17:18.579Z,100978.00
2018-03-01T02:18:21.948Z,100974.94
2018-03-01T02:19:25.410Z,100986.16
2018-03-01T02:20:28.755Z,100972.36
2018-03-01T02:21:32.165Z,100968.04
2018-03-01T02:22:35.542Z,100975.80
2018-03-01T02:23:38.936Z,100966.36
2018-03-01T02:24:42.581Z,100962.92
2018-03-01T02:25:45.990Z,100952.17
2018-03-01T02:26:49.481Z,100954.77
2018-03-01T02:27:53.029Z,100956.92
2018-03-01T02:28:56.467Z,100958.22
2018-03-01T02:29:59.891Z,100953.91
2018-03-01T02:31:03.376Z,100961.23
2018-03-01T02:32:06.898Z,100945.70
2018-03-01T02:33:10.486Z,100953.47
2018-03-01T02:34:13.912Z,100947.87
2018-03-01T02:35:17.307Z,100945.28
2018-03-01T02:36:36.204Z,100937.99
2018-03-01T02:37:39.765Z,100933.30
2018-03-01T02:38:43.085Z,100920.36
2018-03-01T02:39:46.433Z,100914.76
2018-03-01T02:40:49.766Z,100919.07
2018-03-01T02:41:53.104Z,100911.73
2018-03-01T02:42:56.421Z,100911.35
2018-03-01T02:43:59.753Z,100918.64
2018-03-01T02:45:03.215Z,100905.70
2018-03-01T02:46:06.527Z,100914.81
2018-03-01T02:47:09.915Z,100899.30
2018-03-01T02:48:13.336Z,100901.05
2018-03-01T02:49:16.742Z,100899.33
2018-03-01T02:50:20.133Z,100900.64
2018-03-01T02:51:23.641Z,100884.68
2018-03-01T02:52:27.026Z,100892.48
2018-03-01T02:53:30.495Z,100891.19
2018-03-01T02:54:34.082Z,100891.15
2018-03-01T02:55:37.440Z,100892.83
2018-03-01T02:56:40.770Z,100890.23
2018-03-01T02:57:44.178Z,100891.52
2018-03-01T02:58:47.620Z,100895.83
2018-03-01T02:59:50.908Z,100894.10
2018-03-01T03:00:54.417Z,100885.05
2018-03-01T03:01:57.786Z,100879.88
2018-03-01T03:03:01.169Z,100878.58
2018-03-01T03:04:04.552Z,100874.70
2018-03-01T03:05:07.963Z,100870.87
2018-03-01T03:06:11.346Z,100872.22
2018-03-01T03:07:14.795Z,100879.12
2018-03-01T03:08:18.171Z,100861.01
2018-03-01T03:09:21.680Z,100874.37
2018-03-01T03:10:25.010Z,100866.14
2018-03-01T03:11:28.535Z,100870.87
2018-03-01T03:12:31.880Z,100878.27
2018-03-01T03:13:35.228Z,100870.93
2018-03-01T03:14:38.619Z,100870.92
2018-03-01T03:15:41.985Z,100872.61
2018-03-01T03:16:45.374Z,100869.14
2018-03-01T03:17:48.781Z,100867.36
2018-03-01T03:18:52.101Z,100864.34
2018-03-01T03:19:55.517Z,100858.25
2018-03-01T03:20:58.857Z,100859.50
2018-03-01T03:22:02.351Z,100856.47
2018-03-01T03:23:05.747Z,100862.89
2018-03-01T03:24:09.074Z,100861.59
2018-03-01T03:25:12.561Z,100848.21
2018-03-01T03:26:16.020Z,100850.75
2018-03-01T03:27:19.468Z,100856.36
2018-03-01T03:28:22.806Z,100851.17
2018-03-01T03:29:26.163Z,100857.60
2018-03-01T03:30:29.606Z,100853.27
2018-03-01T03:31:32.957Z,100855.81
2018-03-01T03:32:36.390Z,100859.69
2018-03-01T03:33:39.792Z,100860.50
2018-03-01T03:34:43.307Z,100873.49
2018-03-01T03:35:46.682Z,100855.38
2018-03-01T03:36:50.013Z,100853.27
2018-03-01T03:37:53.528Z,100851.99
2018-03-01T03:38:56.873Z,100849.02
2018-03-01T03:40:00.189Z,100846.48
2018-03-01T03:41:03.682Z,100853.83
2018-03-01T03:42:07.176Z,100845.63
2018-03-01T03:43:10.656Z,100851.67
2018-03-01T03:44:14.067Z,100847.36
2018-03-01T03:45:17.489Z,100840.03
2018-03-01T03:46:20.813Z,100838.34
2018-03-01T03:47:24.220Z,100844.34
2018-03-01T03:48:27.604Z,100842.66
2018-03-01T03:49:30.932Z,100850.00
2018-03-01T03:50:34.256Z,100838.35
2018-03-01T03:51:37.635Z,100843.09
2018-03-01T03:52:41.006Z,100837.94
2018-03-01T03:53:44.411Z,100834.05
2018-03-01T03:54:47.738Z,100831.45
2018-03-01T03:55:51.057Z,100836.63
2018-03-01T03:56:54.460Z,100840.94
2018-03-01T03:57:57.793Z,100834.89
2018-03-01T03:59:01.250Z,100825.83
2018-03-01T04:00:04.709Z,100829.25
2018-03-01T04:01:08.161Z,100834.84
2018-03-01T04:02:11.479Z,100831.82
2018-03-01T04:03:14.835Z,100831.38
2018-03-01T04:04:18.363Z,100831.34
2018-03-01T04:05:21.689Z,100840.40
2018-03-01T04:06:25.040Z,100824.91
2018-03-01T04:07:28.410Z,100824.01
2018-03-01T04:08:31.830Z,100828.38
2018-03-01T04:09:35.298Z,100840.50
2018-03-01T04:10:38.665Z,100827.15
2018-03-01T04:11:41.999Z,100828.44
2018-03-01T04:12:45.360Z,100823.26
2018-03-01T04:13:48.785Z,100824.12
2018-03-01T04:14:52.166Z,100817.65
2018-03-01T04:15:55.580Z,100822.34
2018-03-01T04:16:58.925Z,100814.58
2018-03-01T04:18:02.314Z,100816.73
2018-03-01T04:19:05.780Z,100809.83
2018-03-01T04:20:09.247Z,100808.11
2018-03-01T04:21:12.601Z,100808.11
2018-03-01T04:22:16.038Z,100809.41
2018-03-01T04:23:19.406Z,100812.00
2018-03-01T04:24:22.856Z,100811.60
2018-03-01T04:25:26.491Z,100815.02
2018-03-01T04:26:29.903Z,100815.02
2018-03-01T04:27:33.257Z,100809.84
2018-03-01T04:28:36.632Z,100818.45
2018-03-01T04:29:39.972Z,100811.98
2018-03-01T04:30:43.325Z,100817.21
2018-03-01T04:31:46.622Z,100823.69
2018-03-01T04:32:50.035Z,100813.39
2018-03-01T04:33:53.409Z,100809.94
2018-03-01T04:34:56.834Z,100808.64
2018-03-01T04:36:00.260Z,100814.20
2018-03-01T04:37:03.811Z,100825.83
2018-03-01T04:38:07.157Z,100808.96
2018-03-01T04:39:10.572Z,100806.75
2018-03-01T04:40:14.817Z,100807.16
2018-03-01T04:41:18.273Z,100806.25
2018-03-01T04:42:21.701Z,100814.83
2018-03-01T04:43:25.074Z,100813.11
2018-03-01T04:44:28.467Z,100813.53
2018-03-01T04:45:31.913Z,100812.66
2018-03-01T04:46:35.243Z,100807.48
2018-03-01T04:47:38.571Z,100813.08
2018-03-01T04:48:42.048Z,100797.48
2018-03-01T04:49:45.399Z,100785.78
2018-03-01T04:50:48.876Z,100779.70
2018-03-01T04:51:52.275Z,100779.25
2018-03-01T04:52:55.721Z,100765.44
2018-03-01T04:53:59.132Z,100769.77
2018-03-01T04:55:02.520Z,100760.31
2018-03-01T04:56:05.990Z,100754.27
2018-03-01T04:57:09.327Z,100766.79
2018-03-01T04:58:12.764Z,100764.16
2018-03-01T04:59:16.174Z,100768.46
2018-03-01T05:00:19.547Z,100760.33
2018-03-01T05:01:22.901Z,100755.15
2018-03-01T05:02:26.297Z,100748.67
2018-03-01T05:03:29.636Z,100755.58
2018-03-01T05:04:33.044Z,100766.36
2018-03-01T05:05:36.452Z,100765.92
2018-03-01T05:06:39.895Z,100769.34
2018-03-01T05:07:43.341Z,100775.81
2018-03-01T05:08:46.711Z,100777.58
2018-03-01T05:09:50.024Z,100778.88
2018-03-01T05:10:53.379Z,100785.73
2018-03-01T05:11:56.721Z,100785.71
2018-03-01T05:13:00.162Z,100782.22
2018-03-01T05:14:03.508Z,100786.47
2018-03-01T05:15:06.856Z,100780.41
2018-03-01T05:16:10.294Z,100779.50
2018-03-01T05:17:13.651Z,100783.80
2018-03-01T05:18:17.114Z,100777.28
2018-03-01T05:19:20.506Z,100790.22
2018-03-01T05:20:24.407Z,100793.23
2018-03-01T05:21:27.708Z,100789.35
2018-03-01T05:22:31.089Z,100791.06
2018-03-01T05:23:34.529Z,100783.69
2018-03-01T05:24:37.983Z,100797.06
2018-03-01T05:25:41.349Z,100798.79
2018-03-01T05:26:44.899Z,100797.49
2018-03-01T05:27:48.244Z,100798.78
2018-03-01T05:28:51.690Z,100800.06
2018-03-01T05:29:55.051Z,100783.66
2018-03-01T05:30:58.443Z,100795.77
2018-03-01T05:32:01.787Z,100804.81
2018-03-01T05:33:05.218Z,100798.78
2018-03-01T05:34:08.576Z,100797.92
2018-03-01T05:35:11.979Z,100800.08
2018-03-01T05:36:15.297Z,100787.98
2018-03-01T05:37:18.657Z,100791.45
2018-03-01T05:38:22.082Z,100786.27
2018-03-01T05:39:25.517Z,100782.87
2018-03-01T05:40:28.870Z,100793.65
2018-03-01T05:41:32.235Z,100784.16
2018-03-01T05:42:35.723Z,100782.02
2018-03-01T05:43:39.042Z,100778.98
2018-03-01T05:44:42.457Z,100769.92
2018-03-01T05:45:45.814Z,100777.68
2018-03-01T05:46:49.286Z,100773.80
2018-03-01T05:47:52.612Z,100770.34
2018-03-01T05:48:55.966Z,100772.07
2018-03-01T05:49:59.322Z,100772.03
2018-03-01T05:51:02.724Z,100768.58
2018-03-01T05:52:06.068Z,100763.44
2018-03-01T05:53:09.524Z,100757.35
2018-03-01T05:54:12.931Z,100760.36
2018-03-01T05:55:16.300Z,100754.31
2018-03-01T05:56:19.738Z,100756.48
2018-03-01T05:57:23.197Z,100754.73
2018-03-01T05:58:26.997Z,100752.97
2018-03-01T05:59:30.495Z,100750.00
2018-03-01T06:00:33.929Z,100759.92
2018-03-01T06:01:37.385Z,100750.00
2018-03-01T06:02:40.944Z,100753.47
2018-03-01T06:03:44.442Z,100750.88
2018-03-01T06:04:47.965Z,100762.97
2018-03-01T06:05:51.304Z,100759.98
2018-03-01T06:06:54.644Z,100764.74
2018-03-01T06:07:58.076Z,100763.01
2018-03-01T06:09:01.822Z,100768.62
2018-03-01T06:10:05.196Z,100764.69
2018-03-01T06:11:08.532Z,100761.28
2018-03-01T06:12:12.015Z,100763.45
2018-03-01T06:13:15.440Z,100754.82
2018-03-01T06:14:19.002Z,100755.74
2018-03-01T06:15:22.499Z,100753.61
2018-03-01T06:16:25.904Z,100750.62
2018-03-01T06:17:29.467Z,100751.94
2018-03-01T06:18:32.886Z,100754.16
2018-03-01T06:20:45.951Z,100762.42
2018-03-01T06:21:49.460Z,100759.39
2018-03-01T06:22:52.980Z,100769.77
2018-03-01T06:23:56.400Z,100757.67
2018-03-01T06:24:59.751Z,100766.73
2018-03-01T06:26:03.226Z,100764.58
2018-03-01T06:27:06.831Z,100758.10
2018-03-01T06:28:10.342Z,100758.10
2018-03-01T06:29:13.683Z,100752.45
2018-03-01T06:30:17.129Z,100752.86
2018-03-01T06:31:20.620Z,100751.12
2018-03-01T06:32:24.184Z,100752.86
2018-03-01T06:33:27.612Z,100745.53
2018-03-01T06:34:31.032Z,100745.17
2018-03-01T06:35:34.450Z,100717.56
2018-03-01T06:36:37.867Z,100752.98
2018-03-01T06:37:41.220Z,100753.38
2018-03-01T06:38:44.563Z,100745.60
2018-03-01T06:39:47.880Z,100752.05
2018-03-01T06:40:52.235Z,100745.97
2018-03-01T06:41:55.714Z,100742.88
2018-03-01T06:42:59.194Z,100735.52
2018-03-01T06:44:02.651Z,100743.29
2018-03-01T06:45:06.220Z,100740.65
2018-03-01T06:46:09.624Z,100738.91
2018-03-01T06:47:13.104Z,100751.45
2018-03-01T06:48:16.500Z,100740.22
2018-03-01T06:49:19.843Z,100732.02
2018-03-01T06:50:23.173Z,100740.23
2018-03-01T06:51:26.565Z,100737.69
2018-03-01T06:52:30.092Z,100744.16
2018-03-01T06:53:33.574Z,100738.55
2018-03-01T06:54:36.919Z,100742.86
2018-03-01T06:55:41.317Z,100743.67
2018-03-01T06:56:44.798Z,100747.99
2018-03-01T06:57:48.164Z,100755.32
2018-03-01T06:58:51.590Z,100741.52
2018-03-01T06:59:54.980Z,100741.09
2018-03-01T07:00:58.382Z,100735.95
2018-03-01T07:02:01.793Z,100739.83
2018-03-01T07:03:05.212Z,100741.56
2018-03-01T07:04:08.569Z,100735.09
2018-03-01T07:05:11.919Z,100732.08
2018-03-01T07:06:15.321Z,100737.26
2018-03-01T07:07:18.620Z,100720.00
2018-03-01T07:08:22.058Z,100726.89
2018-03-01T07:09:25.514Z,100727.25
2018-03-01T07:10:28.919Z,100728.50
2018-03-01T07:11:32.461Z,100728.08
2018-03-01T07:12:35.868Z,100727.63
2018-03-01T07:13:39.308Z,100724.55
2018-03-01T07:14:42.791Z,100732.26
2018-03-01T07:15:46.339Z,100730.03
2018-03-01T07:16:49.756Z,100736.86
2018-03-01T07:17:53.104Z,100728.20
2018-03-01T07:18:56.573Z,100730.31
2018-03-01T07:19:59.967Z,100721.61
2018-03-01T07:21:03.396Z,100727.58
2018-03-01T07:22:06.733Z,100716.33
2018-03-01T07:23:10.128Z,100727.92
2018-03-01T07:24:13.509Z,100724.42
2018-03-01T07:25:16.932Z,100715.76
2018-03-01T07:26:20.502Z,100722.16
2018-03-01T07:27:24.128Z,100718.20
2018-03-01T07:28:27.428Z,100725.48
2018-03-01T07:29:30.799Z,100722.81
2018-03-01T07:30:34.336Z,100718.42
2018-03-01T07:31:37.816Z,100714.09
2018-03-01T07:32:41.191Z,100711.92
2018-03-01T07:33:45.437Z,100710.58
2018-03-01T07:34:48.880Z,100705.82
2018-03-01T07:35:52.233Z,100701.00
2018-03-01T07:36:55.670Z,100707.46
2018-03-01T07:37:59.045Z,100710.42
2018-03-01T07:39:02.616Z,100703.06
2018-03-01T07:40:05.909Z,100709.11
2018-03-01T07:41:09.375Z,100701.33
2018-03-01T07:42:12.677Z,100705.64
2018-03-01T07:43:16.233Z,100700.03
2018-03-01T07:44:19.590Z,100693.12
2018-03-01T07:45:22.963Z,100688.73
2018-03-01T07:46:26.374Z,100691.27
2018-03-01T07:47:29.832Z,100689.09
2018-03-01T07:48:33.201Z,100686.91
2018-03-01T07:49:36.592Z,100690.75
2018-03-01T07:50:39.898Z,100682.08
2018-03-01T07:51:43.339Z,100674.24
2018-03-01T07:52:48.013Z,100673.81
2018-03-01T07:53:51.926Z,100672.43
2018-03-01T07:54:55.362Z,100669.32
2018-03-01T07:55:58.770Z,100672.69
2018-03-01T07:57:02.177Z,100676.92
2018-03-01T07:58:05.620Z,100671.74
2018-03-01T07:59:09.208Z,100689.89
2018-03-01T08:00:12.764Z,100684.28
2018-03-01T08:01:16.173Z,100684.27
2018-03-01T08:02:19.589Z,100679.47
2018-03-01T08:03:22.978Z,100682.89
2018-03-01T08:04:26.616Z,100684.61
2018-03-01T08:05:30.263Z,100676.77
2018-03-01T08:06:33.965Z,100677.55
2018-03-01T08:07:37.331Z,100672.30
2018-03-01T08:08:41.075Z,100674.36
2018-03-01T08:09:45.128Z,100665.63
2018-03-01T08:10:48.684Z,100668.12
2018-03-01T08:11:52.068Z,100674.13
2018-03-01T08:12:55.468Z,100669.77
2018-03-01T08:13:59.047Z,100662.36
2018-03-01T08:15:03.009Z,100659.31
2018-03-01T08:16:06.323Z,100667.09
2018-03-01T08:17:09.660Z,100655.41
2018-03-01T08:18:13.021Z,100660.53
2018-03-01T08:19:16.440Z,100651.44
2018-03-01T08:20:19.802Z,100649.70
2018-03-01T08:21:23.160Z,100649.69
2018-03-01T08:22:26.543Z,100662.19
2018-03-01T08:23:29.982Z,100647.47
2018-03-01T08:24:33.312Z,100641.47
2018-03-01T08:25:36.668Z,100657.42
2018-03-01T08:26:40.249Z,100658.70
2018-03-01T08:27:43.598Z,100647.44
2018-03-01T08:28:47.031Z,100647.36
2018-03-01T08:29:50.674Z,100649.45
2018-03-01T08:30:54.090Z,100648.16
2018-03-01T08:31:57.417Z,100654.20
2018-03-01T08:33:00.741Z,100642.10
2018-03-01T08:34:04.270Z,100648.56
2018-03-01T08:35:07.588Z,100639.86
2018-03-01T08:36:10.965Z,100635.52
2018-03-01T08:37:14.306Z,100630.22
2018-03-01T08:38:17.821Z,100632.28
2018-03-01T08:39:21.749Z,100630.39
2018-03-01T08:40:25.261Z,100638.52
2018-03-01T08:41:28.641Z,100611.16
2018-03-01T08:42:32.093Z,100619.65
2018-03-01T08:43:35.469Z,100624.66
2018-03-01T08:44:38.865Z,100604.20
2018-03-01T08:45:42.204Z,100610.06
2018-03-01T08:46:45.645Z,100608.64
2018-03-01T08:47:49.821Z,100602.92
2018-03-01T08:48:53.240Z,100604.05
2018-03-01T08:49:56.694Z,100610.86
2018-03-01T08:51:00.107Z,100609.03
2018-03-01T08:52:03.473Z,100599.41
2018-03-01T08:53:06.851Z,100594.13
2018-03-01T08:54:10.233Z,100596.25
2018-03-01T08:55:13.692Z,100587.11
2018-03-01T08:56:17.077Z,100584.46
2018-03-01T08:57:20.477Z,100592.62
2018-03-01T08:58:23.838Z,100590.02
2018-03-01T08:59:27.222Z,100594.41
2018-03-01T09:00:30.617Z,100580.59
2018-03-01T09:01:34.163Z,100584.51
2018-03-01T09:02:37.541Z,100591.53
2018-03-01T09:03:40.851Z,100578.30
2018-03-01T09:04:44.246Z,100572.77
2018-03-01T09:05:47.641Z,100565.86
2018-03-01T09:06:50.955Z,100558.09
2018-03-01T09:07:54.376Z,100578.08
2018-03-01T09:08:57.786Z,100572.95
2018-03-01T09:10:01.093Z,100540.95
2018-03-01T09:11:04.495Z,100556.54
2018-03-01T09:12:08.030Z,100560.88
2018-03-01T09:13:11.381Z,100553.50
2018-03-01T09:14:14.713Z,100560.41
2018-03-01T09:15:18.324Z,100543.90
2018-03-01T09:16:21.772Z,100545.59
2018-03-01T09:17:25.205Z,100547.70
2018-03-01T09:18:28.535Z,100539.45
2018-03-01T09:19:31.846Z,100537.16
2018-03-01T09:20:35.278Z,100535.77
2018-03-01T09:21:38.671Z,100539.13
2018-03-01T09:22:42.166Z,100550.31
2018-03-01T09:23:45.490Z,100544.21
2018-03-01T09:24:48.917Z,100535.95
2018-03-01T09:25:52.253Z,100535.03
2018-03-01T09:26:55.692Z,100535.37
2018-03-01T09:27:59.628Z,100537.91
2018-03-01T09:29:03.000Z,100542.95
2018-03-01T09:30:06.324Z,100538.56
2018-03-01T09:31:09.778Z,100538.47
2018-03-01T09:32:13.197Z,100537.53
2018-03-01T09:33:16.593Z,100533.53
2018-03-01T09:34:20.242Z,100526.11
2018-03-01T09:35:23.584Z,100530.80
2018-03-01T09:36:26.994Z,100532.01
2018-03-01T09:37:30.384Z,100532.33
2018-03-01T09:38:33.823Z,100518.80
2018-03-01T09:39:37.216Z,100523.95
2018-03-01T09:40:40.689Z,100517.33
2018-03-01T09:41:44.687Z,100528.47
2018-03-01T09:42:48.197Z,100523.59
2018-03-01T09:43:51.524Z,100519.61
2018-03-01T09:44:54.913Z,100516.44
2018-03-01T09:45:58.259Z,100509.75
2018-03-01T09:47:01.704Z,100505.26
2018-03-01T09:48:05.190Z,100511.58
2018-03-01T09:49:08.612Z,100514.45
2018-03-01T09:50:12.083Z,100503.45
2018-03-01T09:51:15.553Z,100500.66
2018-03-01T09:52:18.950Z,100504.38
2018-03-01T09:53:22.304Z,100488.61
2018-03-01T09:54:25.723Z,100497.09
2018-03-01T09:55:29.560Z,100500.92
2018-03-01T09:56:32.893Z,100496.03
2018-03-01T09:57:36.238Z,100499.31
2018-03-01T09:58:39.578Z,100506.97
2018-03-01T09:59:42.980Z,100516.84
2018-03-01T10:00:46.468Z,100500.23
2018-03-01T10:01:49.796Z,100506.21
2018-03-01T10:02:53.206Z,100500.44
2018-03-01T10:03:56.654Z,100495.55
2018-03-01T10:05:00.072Z,100491.58
2018-03-01T10:06:03.644Z,100488.02
2018-03-01T10:07:07.183Z,100496.66
2018-03-01T10:08:10.460Z,100484.87
2018-03-01T10:09:13.858Z,100483.45
2018-03-01T10:10:17.405Z,100479.52
2018-03-01T10:11:20.883Z,100482.53
2018-03-01T10:12:24.776Z,100497.28
2018-03-01T10:13:28.106Z,100487.66
2018-03-01T10:14:31.867Z,100495.92
2018-03-01T10:15:35.295Z,100494.63
2018-03-01T10:16:38.733Z,100487.22
2018-03-01T10:17:42.124Z,100487.97
2018-03-01T10:18:46.473Z,100490.55
2018-03-01T10:19:50.110Z,100480.91
2018-03-01T10:20:53.420Z,100492.59
2018-03-01T10:21:56.927Z,100492.55
2018-03-01T10:23:00.332Z,100494.60
2018-03-01T10:24:03.744Z,100482.78
2018-03-01T10:25:07.190Z,100472.69
2018-03-01T10:26:10.528Z,100486.09
2018-03-01T10:27:14.034Z,100481.64
2018-03-01T10:28:17.358Z,100479.77
2018-03-01T10:29:20.743Z,100470.09
2018-03-01T10:30:24.121Z,100463.46
2018-03-01T10:31:27.470Z,100468.55
2018-03-01T10:32:30.780Z,100467.12
2018-03-01T10:33:39.627Z,100455.69
2018-03-01T10:34:43.027Z,100460.86
2018-03-01T10:35:46.387Z,100457.30
2018-03-01T10:36:49.753Z,100456.82
2018-03-01T10:37:53.057Z,100458.05
2018-03-01T10:38:56.389Z,100458.05
2018-03-01T10:39:59.760Z,100450.66
2018-03-01T10:41:03.326Z,100461.38
2018-03-01T10:42:06.832Z,100444.84
2018-03-01T10:43:10.219Z,100443.38
2018-03-01T10:44:13.539Z,100457.16
2018-03-01T10:45:16.952Z,100441.02
2018-03-01T10:46:20.546Z,100441.84
2018-03-01T10:47:23.877Z,100452.66
2018-03-01T10:48:27.279Z,100456.95
2018-03-01T10:49:30.612Z,100443.45
2018-03-01T10:50:34.211Z,100443.87
2018-03-01T10:51:37.561Z,100428.21
2018-03-01T10:52:40.976Z,100446.44
2018-03-01T10:53:44.730Z,100451.22
2018-03-01T10:54:48.576Z,100438.51
2018-03-01T10:55:51.953Z,100442.77
2018-03-01T10:56:55.292Z,100441.86
2018-03-01T10:57:58.676Z,100434.02
2018-03-01T10:59:01.968Z,100428.24
2018-03-01T11:00:05.302Z,100429.02
2018-03-01T11:01:14.543Z,100413.80
2018-03-01T11:02:17.880Z,100429.95
2018-03-01T11:03:21.389Z,100423.00
2018-03-01T11:04:24.886Z,100425.55
2018-03-01T11:05:28.213Z,100417.36
2018-03-01T11:06:31.625Z,100412.16
2018-03-01T11:07:34.988Z,100431.25
2018-03-01T11:08:38.558Z,100416.86
2018-03-01T11:09:42.148Z,100419.86
2018-03-01T11:10:45.642Z,100415.05
2018-03-01T11:11:49.047Z,100407.59
2018-03-01T11:12:52.529Z,100404.09
2018-03-01T11:13:55.890Z,100399.73
2018-03-01T11:14:59.476Z,100403.61
2018-03-01T11:16:03.037Z,100396.58
2018-03-01T11:17:06.619Z,100392.63
2018-03-01T11:18:10.085Z,100388.28
2018-03-01T11:19:13.486Z,100388.60
2018-03-01T11:20:16.852Z,100375.98
2018-03-01T11:21:20.304Z,100374.20
2018-03-01T11:22:23.739Z,100364.49
2018-03-01T11:23:27.212Z,100373.56
2018-03-01T11:24:30.549Z,100364.25
2018-03-01T11:25:33.962Z,100356.25
2018-03-01T11:26:37.439Z,100370.02
2018-03-01T11:27:40.847Z,100354.11
2018-03-01T11:28:44.231Z,100348.19
2018-03-01T11:29:47.654Z,100357.86
2018-03-01T11:30:51.044Z,100369.83
2018-03-01T11:31:54.489Z,100350.91
2018-03-01T11:32:57.815Z,100345.47
2018-03-01T11:34:01.181Z,100347.48
2018-03-01T11:35:05.155Z,100340.78
2018-03-01T11:36:08.678Z,100338.36
2018-03-01T11:37:12.202Z,100340.31
2018-03-01T11:38:15.701Z,100339.77
2018-03-01T11:39:19.118Z,100334.44
2018-03-01T11:40:22.547Z,100337.75
2018-03-01T11:41:26.019Z,100321.48
2018-03-01T11:42:29.426Z,100327.86
2018-03-01T11:43:32.894Z,100324.73
2018-03-01T11:44:36.269Z,100320.61
2018-03-01T11:45:39.619Z,100321.67
2018-03-01T11:46:42.985Z,100320.53
2018-03-01T11:47:46.425Z,100318.03
2018-03-01T11:48:49.849Z,100313.39
2018-03-01T11:49:53.242Z,100322.72
2018-03-01T11:50:56.637Z,100322.92
2018-03-01T11:52:00.072Z,100316.21
2018-03-01T11:53:03.473Z,100317.45
2018-03-01T11:54:06.817Z,100310.38
2018-03-01T11:55:10.268Z,100317.27
2018-03-01T11:56:13.672Z,100307.24
2018-03-01T11:57:17.058Z,100307.03
2018-03-01T11:58:20.472Z,100322.22
2018-03-01T11:59:23.938Z,100306.54
2018-03-01T12:00:27.280Z,100306.87
2018-03-01T12:01:30.663Z,100308.08
2018-03-01T12:02:33.968Z,100292.27
2018-03-01T12:03:37.261Z,100294.27
2018-03-01T12:04:40.692Z,100301.50
2018-03-01T12:05:44.089Z,100293.53
2018-03-01T12:06:47.509Z,100300.89